createdAt,value
2022-10-25T00:04:32.745Z,11.50
2022-10-25T00:09:25.512Z,11.60
2022-10-25T00:14:20.265Z,11.50
2022-10-25T00:19:13.045Z,11.30
2022-10-25T00:24:06.744Z,11.30
2022-10-25T00:29:01.032Z,11.20
2022-10-25T00:33:56.665Z,11.30
2022-10-25T00:38:50.767Z,11.20
2022-10-25T00:43:48.627Z,11.10
2022-10-25T00:48:44.373Z,11.00
2022-10-25T00:53:38.634Z,11.00
2022-10-25T00:58:41.546Z,11.10
2022-10-25T01:03:57.830Z,11.00
2022-10-25T01:08:52.395Z,11.00
2022-10-25T01:13:44.916Z,11.10
2022-10-25T01:19:12.846Z,11.20
2022-10-25T01:24:30.720Z,11.40
2022-10-25T01:29:42.446Z,11.50
2022-10-25T01:34:46.746Z,11.50
2022-10-25T01:39:51.844Z,11.40
2022-10-25T01:45:17.523Z,11.30
2022-10-25T01:50:19.729Z,11.20
2022-10-25T01:55:14.726Z,11.00
2022-10-25T02:06:30.378Z,10.90
2022-10-25T02:11:32.608Z,10.90
2022-10-25T02:16:31.837Z,10.90
2022-10-25T02:21:27.566Z,10.90
2022-10-25T02:26:21.930Z,10.90
2022-10-25T02:31:17.800Z,10.80
2022-10-25T02:36:20.015Z,10.90
2022-10-25T02:41:14.050Z,10.90
2022-10-25T02:46:12.899Z,11.00
2022-10-25T02:51:06.579Z,11.10
2022-10-25T02:56:04.792Z,11.00
2022-10-25T03:00:58.057Z,11.10
2022-10-25T03:05:51.976Z,11.20
2022-10-25T03:10:44.725Z,11.40
2022-10-25T03:15:37.232Z,11.40
2022-10-25T03:20:29.810Z,11.40
2022-10-25T03:25:22.534Z,11.50
2022-10-25T03:30:15.408Z,11.40
2022-10-25T03:35:08.688Z,11.50
2022-10-25T03:40:01.463Z,11.30
2022-10-25T03:44:53.955Z,11.20
2022-10-25T03:49:46.478Z,11.00
2022-10-25T03:54:39.596Z,10.90
2022-10-25T03:59:33.769Z,10.80
2022-10-25T04:04:26.325Z,10.80
2022-10-25T04:09:19.239Z,10.80
2022-10-25T04:14:12.144Z,10.80
2022-10-25T04:19:06.727Z,10.90
2022-10-25T04:24:03.395Z,11.10
2022-10-25T04:29:05.735Z,11.30
2022-10-25T04:34:16.244Z,11.50
2022-10-25T04:39:09.112Z,11.70
2022-10-25T04:44:04.088Z,11.80
2022-10-25T04:48:58.002Z,11.80
2022-10-25T04:53:55.279Z,11.80
2022-10-25T04:58:52.040Z,11.90
2022-10-25T05:03:44.926Z,11.80
2022-10-25T05:08:40.374Z,11.70
2022-10-25T05:13:37.365Z,11.40
2022-10-25T05:18:33.300Z,11.30
2022-10-25T05:23:30.222Z,11.20
2022-10-25T05:28:24.961Z,11.00
2022-10-25T05:33:18.247Z,11.00
2022-10-25T05:38:11.383Z,10.90
2022-10-25T05:43:04.427Z,10.90
2022-10-25T05:47:56.778Z,10.90
2022-10-25T05:52:49.848Z,11.10
2022-10-25T05:57:52.453Z,11.30
2022-10-25T06:02:48.991Z,11.30
2022-10-25T06:07:44.355Z,11.30
2022-10-25T06:12:36.862Z,11.30
2022-10-25T06:17:29.386Z,11.40
2022-10-25T06:22:22.314Z,11.60
2022-10-25T06:27:14.701Z,11.80
2022-10-25T06:32:07.571Z,12.30
2022-10-25T06:37:01.501Z,13.10
2022-10-25T06:41:54.043Z,13.80
2022-10-25T06:47:15.837Z,14.20
2022-10-25T06:51:58.821Z,14.50
2022-10-25T06:56:52.467Z,14.60
2022-10-25T07:01:49.328Z,14.70
2022-10-25T07:06:43.185Z,15.20
2022-10-25T07:11:35.777Z,15.90
2022-10-25T07:16:28.887Z,16.50
2022-10-25T07:21:22.920Z,18.60
2022-10-25T07:26:25.393Z,20.00
2022-10-25T07:31:22.597Z,19.20
2022-10-25T07:36:14.994Z,19.60
2022-10-25T07:41:10.281Z,20.90
2022-10-25T07:46:06.780Z,20.10
2022-10-25T07:51:11.318Z,19.20
2022-10-25T07:56:04.301Z,19.20
2022-10-25T08:01:10.347Z,18.80
2022-10-25T08:06:03.143Z,20.40
2022-10-25T08:10:59.801Z,20.80
2022-10-25T08:15:54.309Z,19.80
2022-10-25T08:21:02.461Z,19.00
2022-10-25T08:25:56.956Z,19.00
2022-10-25T08:30:49.433Z,19.40
2022-10-25T08:35:41.874Z,19.60
2022-10-25T08:41:07.054Z,19.60
2022-10-25T08:46:22.348Z,20.20
2022-10-25T08:51:34.488Z,20.20
2022-10-25T08:56:28.543Z,21.50
2022-10-25T09:01:32.313Z,20.80
2022-10-25T09:06:48.128Z,20.70
2022-10-25T09:11:51.557Z,21.00
2022-10-25T09:17:02.993Z,22.00
2022-10-25T09:22:02.772Z,26.50
2022-10-25T09:27:07.456Z,26.10
2022-10-25T09:32:02.764Z,24.20
2022-10-25T09:37:02.588Z,24.20
2022-10-25T09:42:07.731Z,25.60
2022-10-25T09:47:24.095Z,28.30
2022-10-25T09:52:39.038Z,27.10
2022-10-25T09:57:33.423Z,27.20
2022-10-25T10:02:29.181Z,24.90
2022-10-25T10:07:36.306Z,22.90
2022-10-25T10:13:18.764Z,21.60
2022-10-25T10:18:24.822Z,21.10
2022-10-25T10:23:23.570Z,20.60
2022-10-25T10:28:16.168Z,20.40
2022-10-25T10:33:19.522Z,20.40
2022-10-25T10:38:29.377Z,20.20
2022-10-25T10:43:42.007Z,20.00
2022-10-25T10:48:43.257Z,19.90
2022-10-25T10:53:39.184Z,20.00
2022-10-25T10:58:32.861Z,19.90
2022-10-25T11:03:58.774Z,19.90
2022-10-25T11:08:58.518Z,19.90
2022-10-25T11:14:09.013Z,19.90
2022-10-25T11:19:18.973Z,19.60
2022-10-25T11:24:26.003Z,19.60
2022-10-25T11:29:56.605Z,20.00
2022-10-25T11:40:40.995Z,25.00
2022-10-25T11:45:50.344Z,25.40
2022-10-25T11:51:02.776Z,24.00
2022-10-25T11:56:34.583Z,22.70
2022-10-25T12:01:42.127Z,21.90
2022-10-25T12:07:16.011Z,21.60
2022-10-25T12:12:17.900Z,21.70
2022-10-25T12:17:29.153Z,21.60
2022-10-25T12:22:49.924Z,21.40
2022-10-25T12:27:56.834Z,21.10
2022-10-25T12:33:45.715Z,20.80
2022-10-25T12:38:47.356Z,21.00
2022-10-25T12:49:16.520Z,21.10
2022-10-25T12:54:14.888Z,21.30
2022-10-25T12:59:11.521Z,21.30
2022-10-25T13:04:24.744Z,21.10
2022-10-25T13:09:26.100Z,20.50
2022-10-25T13:14:29.169Z,19.80
2022-10-25T13:19:49.747Z,19.40
2022-10-25T13:24:45.729Z,19.10
2022-10-25T13:35:40.321Z,18.40
2022-10-25T13:41:05.579Z,18.50
2022-10-25T13:46:01.764Z,18.40
2022-10-25T13:51:00.752Z,18.50
2022-10-25T13:56:08.457Z,18.40
2022-10-25T14:01:21.681Z,18.50
2022-10-25T14:06:33.391Z,18.60
2022-10-25T14:11:38.029Z,18.70
2022-10-25T14:16:43.775Z,18.80
2022-10-25T14:21:47.324Z,18.70
2022-10-25T14:26:56.633Z,18.60
2022-10-25T14:31:52.472Z,18.50
2022-10-25T14:36:52.660Z,18.40
2022-10-25T14:42:15.206Z,18.30
2022-10-25T14:47:28.257Z,18.00
2022-10-25T14:52:30.501Z,17.80
2022-10-25T14:57:30.807Z,17.80
2022-10-25T15:02:25.708Z,17.70
2022-10-25T15:07:22.641Z,17.60
2022-10-25T15:12:19.050Z,17.40
2022-10-25T15:17:38.079Z,17.10
2022-10-25T15:22:45.694Z,16.70
2022-10-25T15:27:45.952Z,16.50
2022-10-25T15:37:45.366Z,15.80
2022-10-25T15:42:43.542Z,15.50
2022-10-25T15:47:39.017Z,15.20
2022-10-25T15:52:31.852Z,15.00
2022-10-25T15:57:30.769Z,14.70
2022-10-25T16:02:32.528Z,14.50
2022-10-25T16:07:28.070Z,14.30
2022-10-25T16:12:38.092Z,14.10
2022-10-25T16:17:50.738Z,14.00
2022-10-25T16:22:43.846Z,13.80
2022-10-25T16:58:42.189Z,13.10
2022-10-25T17:03:58.212Z,12.90
2022-10-25T17:08:50.502Z,12.80
2022-10-25T17:13:46.000Z,12.70
2022-10-25T17:18:38.543Z,12.60
2022-10-25T17:23:51.315Z,12.50
2022-10-25T17:28:44.549Z,12.50
2022-10-25T17:33:41.945Z,12.40
2022-10-25T17:38:37.832Z,12.20
2022-10-25T17:43:39.797Z,12.10
2022-10-25T17:48:39.071Z,12.00
2022-10-25T17:53:42.194Z,12.00
2022-10-25T17:58:45.217Z,12.30
2022-10-25T18:03:38.288Z,12.30
2022-10-25T18:08:44.737Z,12.20
2022-10-25T18:13:52.368Z,12.10
2022-10-25T18:18:47.864Z,12.00
2022-10-25T19:09:50.557Z,11.10
2022-10-25T19:14:43.465Z,11.00
2022-10-25T19:19:36.389Z,10.90
2022-10-25T20:04:02.127Z,10.40
2022-10-25T20:09:03.155Z,10.30
2022-10-25T20:36:14.783Z,10.50
2022-10-25T20:46:24.902Z,10.40
2022-10-25T20:51:18.968Z,10.60
2022-10-25T21:01:20.753Z,10.60
2022-10-25T21:06:14.776Z,10.60
2022-10-25T21:11:16.389Z,10.60
2022-10-25T21:28:08.909Z,10.30
2022-10-25T21:33:04.416Z,10.10
2022-10-25T21:37:59.339Z,10.00
2022-10-25T21:42:52.125Z,9.90
2022-10-25T21:47:45.446Z,9.80
2022-10-25T22:04:47.176Z,9.80
2022-10-25T22:09:39.658Z,9.60
2022-10-25T22:14:38.346Z,9.60
2022-10-25T22:19:36.169Z,9.50
2022-10-25T22:24:28.605Z,9.60
2022-10-25T22:29:25.729Z,9.50
2022-10-25T22:34:18.244Z,9.40
2022-10-25T22:39:11.274Z,9.30
2022-10-25T22:44:04.332Z,9.20
2022-10-25T22:48:59.203Z,9.20
2022-10-25T22:53:55.340Z,9.20
2022-10-25T22:58:55.282Z,9.20
2022-10-25T23:03:50.606Z,9.20
2022-10-25T23:08:43.742Z,9.20
2022-10-25T23:18:45.242Z,9.10
2022-10-25T23:23:38.990Z,9.00
2022-10-25T23:28:36.731Z,8.90
2022-10-25T23:33:36.697Z,8.90
